Time;durP1;ratioP1;P1;durP2;ratioP2;P2;SDS_P1;SDS_P2;PMS_P1;PMS_P2;Temp;Humidity;BMP_temperature;BMP_pressure;BME280_temperature;BME280_humidity;BME280_pressure;Samples;Min_cycle;Max_cycle;Signal;HPM_P1;HPM_P2
2021/05/28 00:01:04;;;;;;;;;;;8.10;99.90;;;;;;5095736;28;19903;-74
2021/05/28 00:03:30;;;;;;;;;;;8.00;99.90;;;;;;5097415;28;19998;-74
2021/05/28 00:05:56;;;;;;;;;;;7.90;99.90;;;;;;5095917;28;19904;-75
2021/05/28 00:08:21;;;;;;;;;;;7.80;99.90;;;;;;5095423;28;19955;-75
2021/05/28 00:10:46;;;;;;;;;;;7.80;99.90;;;;;;5097369;28;19904;-75
2021/05/28 00:13:30;;;;;;;;;;;7.80;99.90;;;;;;5109635;28;19910;-74
2021/05/28 00:15:56;;;;;;;;;;;7.70;99.90;;;;;;5110168;28;19918;-73
2021/05/28 00:18:21;;;;;;;;;;;7.70;99.90;;;;;;5096147;28;19903;-74
2021/05/28 00:20:47;;;;;;;;;;;7.70;99.90;;;;;;5122513;27;19904;-74
2021/05/28 00:23:12;;;;;;;;;;;7.60;99.90;;;;;;5094680;28;19939;-75
2021/05/28 00:25:38;;;;;;;;;;;7.70;99.90;;;;;;5112001;28;19903;-74
2021/05/28 00:28:03;;;;;;;;;;;7.60;99.90;;;;;;5106473;28;19904;-73
2021/05/28 00:30:29;;;;;;;;;;;7.60;99.90;;;;;;5094510;28;19928;-75
2021/05/28 00:32:54;;;;;;;;;;;7.70;99.90;;;;;;5094563;28;20370;-75
2021/05/28 00:35:20;;;;;;;;;;;7.70;99.90;;;;;;5095170;28;19995;-74
2021/05/28 00:37:45;;;;;;;;;;;7.70;99.90;;;;;;5094108;28;19977;-74
2021/05/28 00:40:11;;;;;;;;;;;7.70;99.90;;;;;;5104838;28;19922;-74
2021/05/28 00:42:37;;;;;;;;;;;7.70;99.90;;;;;;5112326;28;19908;-74
2021/05/28 00:45:03;;;;;;;;;;;7.70;99.90;;;;;;5094380;28;19904;-74
2021/05/28 00:47:29;;;;;;;;;;;7.70;99.90;;;;;;5094513;28;19904;-75
2021/05/28 00:49:54;;;;;;;;;;;7.70;99.90;;;;;;5093706;28;19904;-74
2021/05/28 00:52:20;;;;;;;;;;;7.70;99.90;;;;;;5107420;28;19986;-75
2021/05/28 00:54:46;;;;;;;;;;;7.70;99.90;;;;;;5096245;28;19911;-75
2021/05/28 00:57:11;;;;;;;;;;;7.60;99.90;;;;;;5093636;28;19956;-74
2021/05/28 00:59:37;;;;;;;;;;;7.50;99.90;;;;;;5094217;27;19912;-75
2021/05/28 01:02:03;;;;;;;;;;;7.60;99.90;;;;;;5094163;28;20007;-75
2021/05/28 01:04:28;;;;;;;;;;;7.60;99.90;;;;;;5093837;28;19918;-74
2021/05/28 01:06:54;;;;;;;;;;;7.60;99.90;;;;;;5094038;28;19904;-74
2021/05/28 01:09:19;;;;;;;;;;;7.60;99.90;;;;;;5094374;28;19912;-74
2021/05/28 01:11:45;;;;;;;;;;;7.60;99.90;;;;;;5093637;28;19904;-74
2021/05/28 01:14:10;;;;;;;;;;;7.50;99.90;;;;;;5093845;28;20284;-75
2021/05/28 01:16:36;;;;;;;;;;;7.50;99.90;;;;;;5106399;28;19907;-75
2021/05/28 01:19:01;;;;;;;;;;;7.50;99.90;;;;;;5095087;28;19916;-74
2021/05/28 01:21:27;;;;;;;;;;;7.40;99.90;;;;;;5094142;28;19911;-74
2021/05/28 01:23:53;;;;;;;;;;;7.40;99.90;;;;;;5093675;28;19911;-75
2021/05/28 01:26:18;;;;;;;;;;;7.40;99.90;;;;;;5093614;28;20301;-74
2021/05/28 01:28:44;;;;;;;;;;;7.30;99.90;;;;;;5094380;28;19904;-74
2021/05/28 01:31:09;;;;;;;;;;;7.30;99.90;;;;;;5093127;28;20386;-74
2021/05/28 01:33:38;;;;;;;;;;;7.20;99.90;;;;;;5093266;28;19908;-74
2021/05/28 01:36:04;;;;;;;;;;;7.20;99.90;;;;;;5093697;28;19943;-74
2021/05/28 01:38:29;;;;;;;;;;;7.10;99.90;;;;;;5093587;28;19963;-74
2021/05/28 01:40:55;;;;;;;;;;;7.10;99.90;;;;;;5092543;28;19958;-75
2021/05/28 01:43:20;;;;;;;;;;;7.10;99.90;;;;;;5093757;28;19908;-75
2021/05/28 01:45:45;;;;;;;;;;;7.00;99.90;;;;;;5093560;28;19904;-74
2021/05/28 01:48:11;;;;;;;;;;;7.00;99.90;;;;;;5092969;28;19990;-74
2021/05/28 01:50:44;;;;;;;;;;;7.00;99.90;;;;;;5093653;28;19904;-74
2021/05/28 01:53:27;;;;;;;;;;;7.00;99.90;;;;;;5096817;28;19964;-75
2021/05/28 01:55:54;;;;;;;;;;;7.00;99.90;;;;;;5113560;28;20276;-75
2021/05/28 01:58:21;;;;;;;;;;;7.00;99.90;;;;;;5096304;28;20280;-73
2021/05/28 02:00:48;;;;;;;;;;;7.00;99.90;;;;;;5092627;28;19908;-75
2021/05/28 02:03:16;;;;;;;;;;;6.90;99.90;;;;;;5094620;28;20367;-76
2021/05/28 02:05:43;;;;;;;;;;;6.90;99.90;;;;;;5093434;28;19911;-75
2021/05/28 02:08:08;;;;;;;;;;;6.90;99.90;;;;;;5092465;28;20255;-74
2021/05/28 02:10:34;;;;;;;;;;;6.90;99.90;;;;;;5093032;28;20004;-74
2021/05/28 02:12:59;;;;;;;;;;;6.90;99.90;;;;;;5091863;28;19908;-74
2021/05/28 02:15:25;;;;;;;;;;;6.90;99.90;;;;;;5092561;28;19904;-74
2021/05/28 02:17:51;;;;;;;;;;;6.90;99.90;;;;;;5093086;28;19914;-74
2021/05/28 02:20:16;;;;;;;;;;;6.90;99.90;;;;;;5092848;28;19922;-77
2021/05/28 02:22:42;;;;;;;;;;;6.90;99.90;;;;;;5092363;28;19986;-75
2021/05/28 02:25:08;;;;;;;;;;;6.90;99.90;;;;;;5092646;28;19904;-75
2021/05/28 02:27:33;;;;;;;;;;;6.80;99.90;;;;;;5093313;28;20438;-75
2021/05/28 02:29:59;;;;;;;;;;;6.90;99.90;;;;;;5092247;28;19910;-74
2021/05/28 02:32:25;;;;;;;;;;;6.90;99.90;;;;;;5099395;28;19987;-74
2021/05/28 02:34:50;;;;;;;;;;;6.90;99.90;;;;;;5100510;28;20168;-75
2021/05/28 02:37:16;;;;;;;;;;;6.80;99.90;;;;;;5092082;28;20324;-73
2021/05/28 02:39:41;;;;;;;;;;;6.80;99.90;;;;;;5092783;28;20391;-74
2021/05/28 02:42:07;;;;;;;;;;;6.80;99.90;;;;;;5092253;28;19911;-74
2021/05/28 02:44:32;;;;;;;;;;;6.70;99.90;;;;;;5091863;28;19943;-73
2021/05/28 02:46:58;;;;;;;;;;;6.60;99.90;;;;;;5092377;28;19927;-74
2021/05/28 02:49:23;;;;;;;;;;;6.50;99.90;;;;;;5092039;28;20008;-73
2021/05/28 02:51:49;;;;;;;;;;;6.40;99.90;;;;;;5093326;28;19904;-74
2021/05/28 02:54:14;;;;;;;;;;;6.50;99.90;;;;;;5092747;28;20411;-74
2021/05/28 02:56:40;;;;;;;;;;;6.40;99.90;;;;;;5101900;28;20324;-74
2021/05/28 02:59:05;;;;;;;;;;;6.40;99.90;;;;;;5096287;28;20378;-74
2021/05/28 03:01:31;;;;;;;;;;;6.40;99.90;;;;;;5092487;28;20409;-73
2021/05/28 03:03:56;;;;;;;;;;;6.40;99.90;;;;;;5091718;28;20284;-73
2021/05/28 03:06:22;;;;;;;;;;;6.30;99.90;;;;;;5092309;28;20671;-75
2021/05/28 03:08:47;;;;;;;;;;;6.30;99.90;;;;;;5092416;28;19904;-74
2021/05/28 03:11:13;;;;;;;;;;;6.20;99.90;;;;;;5091564;28;20394;-74
2021/05/28 03:13:40;;;;;;;;;;;6.20;99.90;;;;;;5092435;28;20618;-74
2021/05/28 03:16:05;;;;;;;;;;;6.10;99.90;;;;;;5091994;28;19908;-74
2021/05/28 03:19:17;;;;;;;;;;;6.10;99.90;;;;;;5098387;28;20339;-74
2021/05/28 03:21:37;;;;;;;;;;;6.10;99.90;;;;;;5090338;28;19991;-75
2021/05/28 03:24:04;;;;;;;;;;;6.00;99.90;;;;;;5091859;28;20271;-75
2021/05/28 03:26:30;;;;;;;;;;;6.00;99.90;;;;;;5091087;28;19943;-75
2021/05/28 03:28:56;;;;;;;;;;;6.00;99.90;;;;;;5091854;28;20287;-74
2021/05/28 03:31:22;;;;;;;;;;;6.00;99.90;;;;;;5091927;28;19923;-75
2021/05/28 03:33:48;;;;;;;;;;;6.00;99.90;;;;;;5091606;28;19904;-75
2021/05/28 03:36:14;;;;;;;;;;;6.10;99.90;;;;;;5092245;28;19911;-75
2021/05/28 03:38:39;;;;;;;;;;;6.10;99.90;;;;;;5091287;28;19915;-74
2021/05/28 03:41:05;;;;;;;;;;;6.10;99.90;;;;;;5091942;28;20355;-74
2021/05/28 03:43:30;;;;;;;;;;;6.10;99.90;;;;;;5092188;28;20352;-74
2021/05/28 03:45:56;;;;;;;;;;;6.00;99.90;;;;;;5091500;28;19965;-74
2021/05/28 03:48:22;;;;;;;;;;;6.00;99.90;;;;;;5092081;28;20266;-74
2021/05/28 03:50:47;;;;;;;;;;;6.10;99.90;;;;;;5092508;28;20049;-74
2021/05/28 03:53:13;;;;;;;;;;;6.10;99.90;;;;;;5091983;28;19998;-75
2021/05/28 03:55:39;;;;;;;;;;;6.30;99.90;;;;;;5094338;28;19904;-75
2021/05/28 03:58:04;;;;;;;;;;;6.10;99.90;;;;;;5095779;28;19904;-74
2021/05/28 04:00:30;;;;;;;;;;;6.10;99.90;;;;;;5095321;28;19916;-76
2021/05/28 04:02:55;;;;;;;;;;;6.20;99.90;;;;;;5109837;28;20372;-75
2021/05/28 04:05:21;;;;;;;;;;;6.20;99.90;;;;;;5095785;28;19911;-76
2021/05/28 04:07:46;;;;;;;;;;;6.20;99.90;;;;;;5097429;28;19911;-75
2021/05/28 04:10:13;;;;;;;;;;;6.30;99.90;;;;;;5107989;28;20368;-74
2021/05/28 04:12:38;;;;;;;;;;;6.40;99.90;;;;;;5095705;28;19927;-74
2021/05/28 04:15:04;;;;;;;;;;;6.40;99.90;;;;;;5094715;28;20363;-74
2021/05/28 04:17:30;;;;;;;;;;;6.50;99.90;;;;;;5095448;28;19911;-75
2021/05/28 04:19:55;;;;;;;;;;;7.00;99.90;;;;;;5099689;28;19912;-74
2021/05/28 04:22:21;;;;;;;;;;;6.60;99.90;;;;;;5104827;28;19904;-74
2021/05/28 04:24:46;;;;;;;;;;;6.60;99.90;;;;;;5109923;28;19904;-75
2021/05/28 04:27:12;;;;;;;;;;;6.70;99.90;;;;;;5095696;28;19910;-74
2021/05/28 04:29:37;;;;;;;;;;;6.70;99.90;;;;;;5095110;28;19905;-74
2021/05/28 04:32:03;;;;;;;;;;;6.70;99.90;;;;;;5095551;28;19904;-74
2021/05/28 04:34:29;;;;;;;;;;;6.70;99.90;;;;;;5108323;28;19904;-75
2021/05/28 04:36:54;;;;;;;;;;;6.80;99.90;;;;;;5097250;28;20359;-75
2021/05/28 04:39:20;;;;;;;;;;;6.80;99.90;;;;;;5095738;28;20292;-74
2021/05/28 04:41:45;;;;;;;;;;;6.90;99.90;;;;;;5096037;28;20072;-75
2021/05/28 04:44:11;;;;;;;;;;;6.90;99.90;;;;;;5095147;28;20408;-74
2021/05/28 04:46:36;;;;;;;;;;;6.90;99.90;;;;;;5095502;28;19910;-75
2021/05/28 04:49:02;;;;;;;;;;;7.00;99.90;;;;;;5108360;28;19927;-74
2021/05/28 04:51:27;;;;;;;;;;;7.00;99.90;;;;;;5094862;28;19905;-74
2021/05/28 04:53:56;;;;;;;;;;;7.00;99.90;;;;;;5109148;28;19930;-74
2021/05/28 04:56:21;;;;;;;;;;;7.10;99.90;;;;;;5094529;28;19904;-75
2021/05/28 04:58:47;;;;;;;;;;;7.20;99.90;;;;;;5096715;28;20329;-74
2021/05/28 05:01:12;;;;;;;;;;;7.30;99.90;;;;;;5107040;28;19947;-75
2021/05/28 05:03:38;;;;;;;;;;;7.40;99.90;;;;;;5094383;28;19904;-75
2021/05/28 05:06:03;;;;;;;;;;;7.50;99.90;;;;;;5093918;28;19904;-76
2021/05/28 05:08:30;;;;;;;;;;;7.70;99.90;;;;;;5095470;28;20370;-75
2021/05/28 05:10:56;;;;;;;;;;;7.80;99.90;;;;;;5108575;28;19918;-74
2021/05/28 05:13:21;;;;;;;;;;;7.90;99.90;;;;;;5095258;28;19904;-75
2021/05/28 05:15:47;;;;;;;;;;;8.10;99.90;;;;;;5107141;28;19948;-75
2021/05/28 05:18:12;;;;;;;;;;;8.20;99.90;;;;;;5096387;28;19904;-76
2021/05/28 05:20:38;;;;;;;;;;;8.30;99.90;;;;;;5094265;28;19923;-75
2021/05/28 05:23:04;;;;;;;;;;;8.40;99.90;;;;;;5094070;28;19957;-75
2021/05/28 05:25:30;;;;;;;;;;;8.50;99.90;;;;;;5094014;28;20370;-74
2021/05/28 05:27:55;;;;;;;;;;;8.60;99.90;;;;;;5093937;28;19904;-75
2021/05/28 05:30:21;;;;;;;;;;;8.70;99.90;;;;;;5094035;28;19912;-74
2021/05/28 05:32:47;;;;;;;;;;;8.80;99.90;;;;;;5093473;28;19904;-76
2021/05/28 05:35:12;;;;;;;;;;;8.90;99.90;;;;;;5094138;28;19950;-75
2021/05/28 05:37:38;;;;;;;;;;;9.00;99.90;;;;;;5094052;28;19953;-74
2021/05/28 05:40:07;;;;;;;;;;;9.00;99.90;;;;;;5092694;28;20375;-74
2021/05/28 05:42:36;;;;;;;;;;;9.10;99.90;;;;;;5093818;28;19908;-74
2021/05/28 05:45:02;;;;;;;;;;;9.20;99.90;;;;;;5093109;28;19920;-74
2021/05/28 05:47:28;;;;;;;;;;;9.30;99.90;;;;;;5093382;28;20106;-74
2021/05/28 05:49:53;;;;;;;;;;;9.40;99.90;;;;;;5093433;28;19904;-75
2021/05/28 05:52:19;;;;;;;;;;;9.50;99.90;;;;;;5093033;28;20370;-75
2021/05/28 05:54:44;;;;;;;;;;;9.50;99.90;;;;;;5093580;28;19997;-75
2021/05/28 05:57:10;;;;;;;;;;;9.60;99.90;;;;;;5096062;28;20004;-74
2021/05/28 05:59:35;;;;;;;;;;;9.60;99.90;;;;;;5104244;28;19938;-75
2021/05/28 06:02:01;;;;;;;;;;;9.80;99.90;;;;;;5108482;28;19926;-76
2021/05/28 06:04:26;;;;;;;;;;;9.80;99.90;;;;;;5102740;27;20479;-74
2021/05/28 06:06:52;;;;;;;;;;;9.90;99.90;;;;;;5094961;27;19908;-76
2021/05/28 06:09:17;;;;;;;;;;;10.00;99.90;;;;;;5098723;27;19995;-77
2021/05/28 06:11:43;;;;;;;;;;;10.10;99.90;;;;;;5093128;28;19908;-75
2021/05/28 06:14:08;;;;;;;;;;;10.10;99.90;;;;;;5101943;27;19915;-75
2021/05/28 06:16:34;;;;;;;;;;;10.20;99.90;;;;;;5100154;27;20314;-76
2021/05/28 06:18:59;;;;;;;;;;;10.20;99.90;;;;;;5095159;27;19966;-74
2021/05/28 06:21:25;;;;;;;;;;;10.40;99.90;;;;;;5096486;27;19904;-74
2021/05/28 06:23:50;;;;;;;;;;;10.30;99.90;;;;;;5096128;27;19949;-74
2021/05/28 06:26:16;;;;;;;;;;;10.40;99.90;;;;;;5099514;27;20405;-75
2021/05/28 06:28:41;;;;;;;;;;;10.40;99.90;;;;;;5103712;27;19931;-74
2021/05/28 06:31:07;;;;;;;;;;;10.40;99.90;;;;;;5106809;27;19907;-75
2021/05/28 06:33:32;;;;;;;;;;;10.50;99.90;;;;;;5104394;27;19904;-74
2021/05/28 06:35:58;;;;;;;;;;;10.50;99.90;;;;;;5110135;27;19904;-75
2021/05/28 06:38:23;;;;;;;;;;;10.60;99.90;;;;;;5102348;27;19973;-74
2021/05/28 06:40:49;;;;;;;;;;;10.60;99.90;;;;;;5097177;27;19904;-76
2021/05/28 06:43:14;;;;;;;;;;;11.60;99.90;;;;;;5097606;28;19904;-75
2021/05/28 06:45:40;;;;;;;;;;;10.70;99.90;;;;;;5101759;27;19912;-75
2021/05/28 06:48:08;;;;;;;;;;;10.70;99.90;;;;;;5092441;28;19957;-76
2021/05/28 06:50:33;;;;;;;;;;;10.80;99.90;;;;;;5101511;28;19905;-75
2021/05/28 06:52:59;;;;;;;;;;;10.80;99.90;;;;;;5102151;28;19950;-75
2021/05/28 06:55:25;;;;;;;;;;;10.90;99.90;;;;;;5096985;28;19911;-75
2021/05/28 06:57:50;;;;;;;;;;;11.00;99.90;;;;;;5107435;28;20390;-76
2021/05/28 07:00:16;;;;;;;;;;;11.10;99.90;;;;;;5109249;28;20014;-76
2021/05/28 07:02:42;;;;;;;;;;;11.10;99.90;;;;;;5109297;28;19994;-76
2021/05/28 07:05:07;;;;;;;;;;;11.20;99.90;;;;;;5092662;28;19911;-75
2021/05/28 07:07:33;;;;;;;;;;;11.30;99.90;;;;;;5100453;28;19922;-75
2021/05/28 07:09:59;;;;;;;;;;;11.30;99.90;;;;;;5095678;28;20014;-75
2021/05/28 07:12:25;;;;;;;;;;;11.30;99.90;;;;;;5096429;28;19904;-76
2021/05/28 07:14:51;;;;;;;;;;;11.40;99.90;;;;;;5111123;28;20251;-73
2021/05/28 07:17:16;;;;;;;;;;;11.30;99.90;;;;;;5102911;28;19904;-75
2021/05/28 07:19:42;;;;;;;;;;;11.40;99.90;;;;;;5107579;28;19912;-76
2021/05/28 07:22:07;;;;;;;;;;;11.40;99.90;;;;;;5107531;28;19955;-77
2021/05/28 07:24:33;;;;;;;;;;;11.50;99.90;;;;;;5102651;28;19999;-78
2021/05/28 07:26:59;;;;;;;;;;;11.60;99.90;;;;;;5111686;28;20005;-74
2021/05/28 07:29:24;;;;;;;;;;;11.70;99.90;;;;;;5092689;28;19991;-75
2021/05/28 07:31:52;;;;;;;;;;;11.70;99.90;;;;;;5114366;27;19903;-74
2021/05/28 07:34:18;;;;;;;;;;;11.80;99.90;;;;;;5107198;27;20002;-75
2021/05/28 07:36:43;;;;;;;;;;;11.80;99.90;;;;;;5111279;27;19973;-76
2021/05/28 07:39:09;;;;;;;;;;;11.90;99.90;;;;;;5110114;27;19946;-74
2021/05/28 07:41:37;;;;;;;;;;;11.90;99.90;;;;;;5107229;27;20004;-74
2021/05/28 07:44:04;;;;;;;;;;;12.00;99.90;;;;;;5114453;27;20315;-74
2021/05/28 07:46:29;;;;;;;;;;;12.10;99.90;;;;;;5105668;27;20303;-74
2021/05/28 07:48:55;;;;;;;;;;;12.20;99.90;;;;;;5116291;27;19904;-75
2021/05/28 07:51:20;;;;;;;;;;;12.30;99.90;;;;;;5105977;27;19908;-73
2021/05/28 07:53:46;;;;;;;;;;;12.40;99.90;;;;;;5110971;27;19935;-73
2021/05/28 07:56:11;;;;;;;;;;;12.60;99.90;;;;;;5105209;27;19907;-75
2021/05/28 07:58:37;;;;;;;;;;;12.70;99.90;;;;;;5106590;27;20275;-76
2021/05/28 08:01:02;;;;;;;;;;;12.80;99.90;;;;;;5111482;27;20403;-74
2021/05/28 08:03:28;;;;;;;;;;;12.90;99.90;;;;;;5095639;28;19911;-75
2021/05/28 08:05:53;;;;;;;;;;;13.00;99.90;;;;;;5104781;27;19908;-77
2021/05/28 08:08:19;;;;;;;;;;;13.10;99.90;;;;;;5126102;27;19919;-77
2021/05/28 08:10:45;;;;;;;;;;;13.30;99.90;;;;;;5099839;27;19915;-76
2021/05/28 08:13:11;;;;;;;;;;;13.40;99.90;;;;;;5104302;27;20349;-76
2021/05/28 08:15:36;;;;;;;;;;;13.40;99.90;;;;;;5096894;28;19934;-75
2021/05/28 08:18:02;;;;;;;;;;;13.60;99.90;;;;;;5106530;27;19919;-77
2021/05/28 08:20:28;;;;;;;;;;;13.60;99.90;;;;;;5098578;28;19912;-77
2021/05/28 08:22:54;;;;;;;;;;;13.70;99.90;;;;;;5101903;27;20297;-77
2021/05/28 08:25:20;;;;;;;;;;;13.70;99.90;;;;;;5104878;27;20098;-77
2021/05/28 08:27:45;;;;;;;;;;;13.80;99.90;;;;;;5100471;27;19904;-78
2021/05/28 08:30:13;;;;;;;;;;;13.80;99.90;;;;;;5107172;27;20263;-77
2021/05/28 08:32:39;;;;;;;;;;;13.90;99.90;;;;;;5100711;27;19987;-76
2021/05/28 08:35:05;;;;;;;;;;;14.00;99.90;;;;;;5103837;27;20423;-76
2021/05/28 08:37:30;;;;;;;;;;;14.20;99.90;;;;;;5099894;27;20000;-76
2021/05/28 08:39:55;;;;;;;;;;;14.30;99.90;;;;;;5101318;27;20259;-77
2021/05/28 08:42:21;;;;;;;;;;;14.30;99.90;;;;;;5100693;27;19904;-76
2021/05/28 08:44:48;;;;;;;;;;;14.40;99.90;;;;;;5102832;27;19947;-75
2021/05/28 08:47:15;;;;;;;;;;;14.20;99.90;;;;;;5099401;27;19904;-76
2021/05/28 08:49:45;;;;;;;;;;;14.60;99.90;;;;;;5095018;27;19908;-80
2021/05/28 08:52:10;;;;;;;;;;;14.80;99.90;;;;;;5095482;27;20362;-79
2021/05/28 08:54:36;;;;;;;;;;;14.90;99.90;;;;;;5097001;27;19998;-78
2021/05/28 08:57:01;;;;;;;;;;;14.90;99.90;;;;;;5095771;27;20367;-70
2021/05/28 08:59:27;;;;;;;;;;;15.00;99.90;;;;;;5095169;28;19912;-69
2021/05/28 09:01:53;;;;;;;;;;;14.90;99.90;;;;;;5094881;28;19999;-70
2021/05/28 09:04:19;;;;;;;;;;;15.00;99.90;;;;;;5091755;28;19904;-79
2021/05/28 09:06:46;;;;;;;;;;;14.90;99.90;;;;;;5094297;28;19907;-77
2021/05/28 09:09:12;;;;;;;;;;;15.00;99.90;;;;;;5092887;28;19927;-77
2021/05/28 09:11:50;;;;;;;;;;;15.10;99.90;;;;;;5093310;28;19904;-77
2021/05/28 09:14:38;;;;;;;;;;;15.20;99.90;;;;;;5095102;28;19904;-77
2021/05/28 09:17:04;;;;;;;;;;;15.20;99.90;;;;;;5093512;28;20450;-76
2021/05/28 09:19:30;;;;;;;;;;;15.30;99.90;;;;;;5094116;28;19912;-77
2021/05/28 09:21:57;;;;;;;;;;;15.40;99.90;;;;;;5093782;28;20471;-76
2021/05/28 09:24:34;;;;;;;;;;;15.50;99.90;;;;;;5092817;28;20025;-76
2021/05/28 09:27:19;;;;;;;;;;;15.60;99.90;;;;;;5093680;28;19912;-75
2021/05/28 09:30:20;;;;;;;;;;;15.60;99.90;;;;;;5093514;28;19984;-76
2021/05/28 09:32:47;;;;;;;;;;;15.60;99.90;;;;;;5011127;28;19955;-75
2021/05/28 09:35:15;;;;;;;;;;;15.70;99.90;;;;;;5077362;28;19983;-77
2021/05/28 09:37:42;;;;;;;;;;;15.70;99.90;;;;;;5093503;28;19908;-77
2021/05/28 09:40:09;;;;;;;;;;;15.80;99.90;;;;;;5093582;28;20002;-76
2021/05/28 09:42:51;;;;;;;;;;;15.80;99.90;;;;;;5093873;28;20283;-76
2021/05/28 09:45:30;;;;;;;;;;;15.80;99.90;;;;;;5093167;28;19914;-77
2021/05/28 09:47:57;;;;;;;;;;;15.90;99.90;;;;;;5094068;28;19904;-77
2021/05/28 09:50:43;;;;;;;;;;;15.90;99.90;;;;;;5093454;28;19904;-76
2021/05/28 09:53:24;;;;;;;;;;;15.90;99.90;;;;;;5092730;28;19957;-76
2021/05/28 09:55:52;;;;;;;;;;;16.00;99.90;;;;;;5093932;28;19904;-76
2021/05/28 09:58:18;;;;;;;;;;;16.00;99.90;;;;;;5093028;28;19904;-76
2021/05/28 10:00:43;;;;;;;;;;;16.00;99.90;;;;;;5093803;28;19961;-77
2021/05/28 10:03:15;;;;;;;;;;;16.00;99.90;;;;;;5093640;28;20004;-77
2021/05/28 10:05:42;;;;;;;;;;;15.90;99.90;;;;;;5092791;28;19908;-77
2021/05/28 10:08:09;;;;;;;;;;;16.00;99.90;;;;;;5093952;28;20283;-75
2021/05/28 10:10:36;;;;;;;;;;;16.10;99.90;;;;;;5094175;28;20319;-76
2021/05/28 10:13:11;;;;;;;;;;;16.10;99.90;;;;;;5093182;28;20356;-76
2021/05/28 10:15:43;;;;;;;;;;;16.10;99.90;;;;;;5094206;28;19908;-76
2021/05/28 10:18:09;;;;;;;;;;;16.10;99.90;;;;;;5093633;28;19927;-76
2021/05/28 10:20:36;;;;;;;;;;;16.10;99.90;;;;;;5092996;28;19912;-76
2021/05/28 10:23:01;;;;;;;;;;;16.10;99.90;;;;;;5093816;28;19991;-75
2021/05/28 10:25:27;;;;;;;;;;;16.20;99.90;;;;;;5092910;28;19946;-76
2021/05/28 10:27:59;;;;;;;;;;;16.30;99.90;;;;;;5092303;28;20293;-75
2021/05/28 10:30:26;;;;;;;;;;;16.40;99.90;;;;;;5093155;28;20306;-75
2021/05/28 10:33:10;;;;;;;;;;;16.40;99.90;;;;;;5093818;28;19904;-76
2021/05/28 10:35:37;;;;;;;;;;;16.40;99.90;;;;;;5092929;28;19904;-75
2021/05/28 10:38:22;;;;;;;;;;;16.50;99.90;;;;;;5093302;28;20439;-76
2021/05/28 10:40:48;;;;;;;;;;;16.60;99.90;;;;;;5092280;28;20257;-76
2021/05/28 10:43:19;;;;;;;;;;;16.70;99.90;;;;;;5093525;28;19956;-77
2021/05/28 10:45:58;;;;;;;;;;;16.70;99.90;;;;;;5093768;28;19904;-75
2021/05/28 10:48:38;;;;;;;;;;;16.80;99.90;;;;;;5092703;28;19966;-76
2021/05/28 10:51:17;;;;;;;;;;;16.90;99.90;;;;;;5093630;28;19904;-76
2021/05/28 10:53:52;;;;;;;;;;;16.90;99.90;;;;;;5093345;28;19904;-75
2021/05/28 10:56:19;;;;;;;;;;;17.00;99.90;;;;;;5092795;28;19911;-77
2021/05/28 10:58:57;;;;;;;;;;;17.00;99.90;;;;;;5093586;28;19910;-77
2021/05/28 11:01:32;;;;;;;;;;;17.00;99.90;;;;;;5093471;28;20316;-75
2021/05/28 11:03:58;;;;;;;;;;;17.10;99.90;;;;;;5093016;28;20029;-75
2021/05/28 11:06:23;;;;;;;;;;;17.10;99.90;;;;;;5092879;28;20347;-77
2021/05/28 11:08:51;;;;;;;;;;;17.20;99.90;;;;;;5092922;28;19926;-77
2021/05/28 11:11:35;;;;;;;;;;;17.30;99.90;;;;;;5093798;28;19903;-77
2021/05/28 11:14:03;;;;;;;;;;;17.40;99.90;;;;;;5093573;28;19995;-77
2021/05/28 11:16:48;;;;;;;;;;;17.60;99.90;;;;;;5092583;28;19990;-77
2021/05/28 11:19:20;;;;;;;;;;;17.70;99.90;;;;;;5092770;28;19912;-75
2021/05/28 11:21:51;;;;;;;;;;;17.70;99.90;;;;;;5092999;28;20314;-75
2021/05/28 11:24:18;;;;;;;;;;;17.70;99.90;;;;;;5092520;28;19911;-76
2021/05/28 11:26:44;;;;;;;;;;;17.80;99.90;;;;;;5093208;28;19915;-76
2021/05/28 11:29:18;;;;;;;;;;;17.90;99.90;;;;;;5093203;28;19904;-77
2021/05/28 11:31:44;;;;;;;;;;;17.80;99.90;;;;;;5092402;28;20343;-76
2021/05/28 11:34:10;;;;;;;;;;;17.80;99.90;;;;;;5093231;28;20004;-76
2021/05/28 11:36:39;;;;;;;;;;;17.80;99.70;;;;;;5093077;28;20228;-76
2021/05/28 11:39:07;;;;;;;;;;;17.80;99.00;;;;;;5092064;28;20346;-75
2021/05/28 11:41:45;;;;;;;;;;;17.70;98.70;;;;;;5093298;28;19904;-76
2021/05/28 11:44:14;;;;;;;;;;;17.60;98.40;;;;;;5092429;28;19908;-76
2021/05/28 11:46:40;;;;;;;;;;;17.70;99.30;;;;;;5093198;28;19904;-76
2021/05/28 11:49:07;;;;;;;;;;;17.70;98.90;;;;;;5093245;28;19994;-76
2021/05/28 11:51:32;;;;;;;;;;;17.70;97.40;;;;;;5092265;28;19904;-76
2021/05/28 11:53:58;;;;;;;;;;;17.80;97.10;;;;;;5093210;28;19910;-76
2021/05/28 11:56:24;;;;;;;;;;;17.90;97.50;;;;;;5092836;28;19940;-77
2021/05/28 11:58:50;;;;;;;;;;;18.00;97.30;;;;;;5092266;28;19915;-75
2021/05/28 12:01:16;;;;;;;;;;;18.10;96.10;;;;;;5093121;28;20320;-77
2021/05/28 12:03:42;;;;;;;;;;;18.10;95.80;;;;;;5093571;28;19911;-76
2021/05/28 12:06:07;;;;;;;;;;;18.30;96.00;;;;;;5092365;28;20371;-75
2021/05/28 12:08:34;;;;;;;;;;;18.40;96.20;;;;;;5093145;28;19904;-76
2021/05/28 12:11:00;;;;;;;;;;;18.40;96.20;;;;;;5092142;28;19904;-76
2021/05/28 12:13:26;;;;;;;;;;;18.50;95.50;;;;;;5092787;28;19911;-76
2021/05/28 12:15:58;;;;;;;;;;;18.60;95.30;;;;;;5094201;28;19911;-76
2021/05/28 12:18:34;;;;;;;;;;;18.60;95.00;;;;;;5096646;28;19904;-76
2021/05/28 12:21:05;;;;;;;;;;;18.80;94.20;;;;;;5095582;28;19912;-74
2021/05/28 12:23:50;;;;;;;;;;;18.80;93.10;;;;;;5096097;28;20276;-76
2021/05/28 12:26:20;;;;;;;;;;;18.90;92.80;;;;;;5095561;28;19986;-76
2021/05/28 12:28:55;;;;;;;;;;;19.00;92.30;;;;;;5096365;28;19930;-76
2021/05/28 12:31:21;;;;;;;;;;;19.10;91.60;;;;;;5096181;28;20004;-77
2021/05/28 12:33:50;;;;;;;;;;;19.20;92.00;;;;;;5095484;28;20424;-77
2021/05/28 12:36:16;;;;;;;;;;;19.30;91.80;;;;;;5095792;28;19966;-76
2021/05/28 12:38:45;;;;;;;;;;;19.50;91.70;;;;;;5095631;28;20335;-76
2021/05/28 12:41:12;;;;;;;;;;;19.50;92.10;;;;;;5095254;28;19914;-76
2021/05/28 12:43:42;;;;;;;;;;;19.50;91.20;;;;;;5095908;28;19904;-76
2021/05/28 12:46:15;;;;;;;;;;;19.40;91.20;;;;;;5096017;28;20275;-77
2021/05/28 12:48:43;;;;;;;;;;;19.50;92.00;;;;;;5095591;28;19908;-77
2021/05/28 12:51:11;;;;;;;;;;;19.50;91.40;;;;;;5096406;28;20306;-76
2021/05/28 12:53:37;;;;;;;;;;;19.70;91.80;;;;;;5095927;28;19904;-75
2021/05/28 12:56:04;;;;;;;;;;;19.80;91.70;;;;;;5095032;28;19911;-76
2021/05/28 12:58:30;;;;;;;;;;;19.90;91.70;;;;;;5096095;28;19911;-76
2021/05/28 13:00:59;;;;;;;;;;;20.00;91.20;;;;;;5077635;28;19927;-76
2021/05/28 13:03:30;;;;;;;;;;;19.80;90.60;;;;;;5095125;28;20257;-76
2021/05/28 13:05:56;;;;;;;;;;;20.00;90.20;;;;;;5095708;28;20385;-75
2021/05/28 13:08:29;;;;;;;;;;;20.20;90.50;;;;;;5094970;28;19908;-75
2021/05/28 13:10:57;;;;;;;;;;;20.30;88.60;;;;;;5095694;28;20399;-75
2021/05/28 13:13:23;;;;;;;;;;;20.30;86.80;;;;;;5095515;28;19904;-77
2021/05/28 13:15:49;;;;;;;;;;;20.10;85.50;;;;;;5094821;28;19911;-77
2021/05/28 13:18:15;;;;;;;;;;;19.80;83.50;;;;;;5095218;28;20279;-75
2021/05/28 13:20:42;;;;;;;;;;;19.90;87.40;;;;;;5095201;28;19916;-75
2021/05/28 13:23:18;;;;;;;;;;;20.10;86.70;;;;;;5094717;28;19904;-75
2021/05/28 13:25:43;;;;;;;;;;;20.30;87.20;;;;;;5096985;28;19998;-77
2021/05/28 13:28:11;;;;;;;;;;;20.50;86.60;;;;;;5095010;28;20331;-76
2021/05/28 13:30:38;;;;;;;;;;;20.80;85.90;;;;;;5095260;28;20262;-77
2021/05/28 13:33:24;;;;;;;;;;;21.10;84.70;;;;;;5097784;28;20260;-77
2021/05/28 13:35:50;;;;;;;;;;;21.20;85.10;;;;;;5095142;28;19939;-75
2021/05/28 13:38:16;;;;;;;;;;;21.30;83.60;;;;;;5093901;28;20003;-75
2021/05/28 13:40:44;;;;;;;;;;;21.40;82.30;;;;;;5094599;28;19998;-76
2021/05/28 13:43:12;;;;;;;;;;;21.70;81.10;;;;;;5094715;28;19970;-75
2021/05/28 13:45:38;;;;;;;;;;;22.00;78.70;;;;;;5094949;28;19943;-77
2021/05/28 13:48:03;;;;;;;;;;;22.30;76.40;;;;;;5095773;28;19904;-76
2021/05/28 13:50:35;;;;;;;;;;;22.40;76.10;;;;;;5093717;28;20003;-74
2021/05/28 13:53:06;;;;;;;;;;;22.50;75.00;;;;;;5094401;28;20284;-75
2021/05/28 13:55:32;;;;;;;;;;;22.60;73.90;;;;;;5094648;28;19908;-77
2021/05/28 13:57:58;;;;;;;;;;;22.70;73.10;;;;;;5094346;28;19957;-77
2021/05/28 14:00:24;;;;;;;;;;;22.70;71.50;;;;;;5094432;28;19959;-75
2021/05/28 14:02:50;;;;;;;;;;;22.60;71.50;;;;;;5094273;28;19904;-75
2021/05/28 14:05:16;;;;;;;;;;;22.60;71.00;;;;;;5093816;28;20347;-75
2021/05/28 14:07:42;;;;;;;;;;;22.70;70.60;;;;;;5094262;28;19975;-76
2021/05/28 14:10:08;;;;;;;;;;;22.80;69.90;;;;;;5094048;28;20025;-75
2021/05/28 14:12:33;;;;;;;;;;;22.90;68.90;;;;;;5093393;28;19991;-76
2021/05/28 14:14:59;;;;;;;;;;;23.10;68.60;;;;;;5094113;28;19946;-75
2021/05/28 14:17:24;;;;;;;;;;;23.20;68.90;;;;;;5094127;28;20267;-76
2021/05/28 14:19:50;;;;;;;;;;;23.30;67.70;;;;;;5093261;28;20276;-76
2021/05/28 14:22:15;;;;;;;;;;;23.30;66.90;;;;;;5093819;28;19910;-77
2021/05/28 14:24:41;;;;;;;;;;;23.20;66.60;;;;;;5093884;28;19904;-76